Time;durP1;ratioP1;P1;durP2;ratioP2;P2;SDS_P1;SDS_P2;PMS_P1;PMS_P2;Temp;Humidity;BMP_temperature;BMP_pressure;BME280_temperature;BME280_humidity;BME280_pressure;Samples;Min_cycle;Max_cycle;Signal;HPM_P1;HPM_P2
2021/03/05 00:00:33;;;;;;;34.88;17.55;;;;;;;4.60;68.73;98645.33;1665555;85;21131;-61
2021/03/05 00:03:03;;;;;;;35.30;17.48;;;;;;;4.56;68.22;98640.20;1679720;85;21182;-61
2021/03/05 00:05:35;;;;;;;31.68;15.85;;;;;;;4.52;68.14;98655.25;1647421;86;21148;-61
2021/03/05 00:08:06;;;;;;;30.30;15.03;;;;;;;4.48;67.51;98649.73;1669761;85;21186;-62
2021/03/05 00:10:36;;;;;;;25.48;13.08;;;;;;;4.45;66.83;98653.51;1667389;85;21174;-61
2021/03/05 00:13:05;;;;;;;23.40;12.60;;;;;;;4.40;66.54;98641.45;1674134;85;21222;-60
2021/03/05 00:15:35;;;;;;;24.45;12.90;;;;;;;4.33;66.32;98658.86;1667319;85;21608;-60
2021/03/05 00:18:03;;;;;;;21.97;11.90;;;;;;;4.28;66.33;98655.19;1672304;85;21615;-60
2021/03/05 00:20:32;;;;;;;26.87;13.40;;;;;;;4.30;66.17;98649.77;1672793;85;21241;-61
2021/03/05 00:23:00;;;;;;;29.72;12.07;;;;;;;4.29;65.64;98654.72;1647223;86;21198;-62
2021/03/05 00:25:29;;;;;;;26.90;11.80;;;;;;;4.24;65.50;98646.19;1657909;86;21196;-61
2021/03/05 00:27:57;;;;;;;23.73;11.90;;;;;;;4.19;65.65;98650.55;1667255;85;21147;-61
2021/03/05 00:30:25;;;;;;;25.68;13.15;;;;;;;4.15;65.82;98661.54;1653286;85;21644;-63
2021/03/05 00:32:52;;;;;;;24.70;13.03;;;;;;;4.10;65.98;98657.87;1640490;87;21312;-62
2021/03/05 00:35:21;;;;;;;22.73;12.33;;;;;;;4.10;66.16;98664.53;1663786;85;21170;-62
2021/03/05 00:37:51;;;;;;;25.65;13.15;;;;;;;4.09;66.12;98658.81;1663590;85;21804;-60
2021/03/05 00:40:20;;;;;;;25.95;13.62;;;;;;;4.04;66.18;98661.45;1676409;85;21212;-61
2021/03/05 00:42:48;;;;;;;23.15;12.13;;;;;;;4.04;66.46;98664.12;1668517;85;21196;-61
2021/03/05 00:45:19;;;;;;;24.18;12.75;;;;;;;4.05;66.46;98661.33;1667836;85;21151;-60
2021/03/05 00:47:47;;;;;;;25.45;12.23;;;;;;;4.04;66.60;98664.95;1675677;84;21237;-61
2021/03/05 00:50:18;;;;;;;20.60;11.38;;;;;;;4.05;66.28;98659.14;1681164;84;21757;-61
2021/03/05 00:52:49;;;;;;;25.35;11.43;;;;;;;4.02;66.41;98652.20;1685821;84;21205;-61
2021/03/05 00:55:18;;;;;;;28.65;12.88;;;;;;;3.99;66.66;98664.44;1636409;86;21636;-61
2021/03/05 00:57:47;;;;;;;21.60;11.43;;;;;;;4.00;66.55;98660.80;1716427;83;21299;-61
2021/03/05 01:00:16;;;;;;;23.75;11.90;;;;;;;3.96;66.48;98657.98;1722045;83;21136;-61
2021/03/05 01:02:45;;;;;;;23.10;11.95;;;;;;;3.94;66.52;98649.24;1720420;83;21170;-61
2021/03/05 01:05:13;;;;;;;22.90;11.20;;;;;;;3.95;66.57;98650.97;1724094;83;21305;-60
2021/03/05 01:07:41;;;;;;;22.82;11.45;;;;;;;3.96;66.61;98645.98;1673795;83;21166;-60
2021/03/05 01:10:12;;;;;;;22.73;10.98;;;;;;;3.94;66.66;98645.72;1726482;83;21280;-60
2021/03/05 01:12:40;;;;;;;22.93;11.30;;;;;;;3.94;66.57;98649.24;1697524;83;21163;-60
2021/03/05 01:15:08;;;;;;;21.95;10.90;;;;;;;3.94;66.51;98649.24;1723223;83;21511;-60
2021/03/05 01:17:36;;;;;;;18.65;9.75;;;;;;;3.93;66.53;98648.03;1726783;83;21190;-61
2021/03/05 01:20:14;;;;;;;18.40;10.00;;;;;;;3.91;66.61;98648.62;1721402;83;21189;-60
2021/03/05 01:22:42;;;;;;;21.90;11.12;;;;;;;3.90;66.58;98637.10;1695036;83;21308;-60
2021/03/05 01:25:16;;;;;;;23.67;11.03;;;;;;;3.89;66.71;98643.38;1722448;83;21198;-61
2021/03/05 01:27:44;;;;;;;23.15;11.40;;;;;;;3.89;66.71;98650.55;1702397;83;21176;-60
2021/03/05 01:30:13;;;;;;;19.67;10.48;;;;;;;3.86;66.75;98653.41;1719278;83;21604;-60
2021/03/05 01:32:42;;;;;;;21.75;11.03;;;;;;;3.79;66.91;98653.86;1724192;83;21624;-62
2021/03/05 01:35:14;;;;;;;21.10;10.53;;;;;;;3.77;67.18;98660.25;1718486;83;21751;-60
2021/03/05 01:37:42;;;;;;;24.57;12.07;;;;;;;3.77;67.34;98657.58;1716839;83;21194;-59
2021/03/05 01:40:17;;;;;;;21.33;10.90;;;;;;;3.76;67.44;98661.19;1703421;83;21579;-61
2021/03/05 01:42:45;;;;;;;19.32;10.23;;;;;;;3.76;67.52;98664.72;1716305;83;21223;-61
2021/03/05 01:45:17;;;;;;;23.90;11.20;;;;;;;3.74;67.55;98667.11;1720070;83;21153;-61
2021/03/05 01:47:45;;;;;;;23.40;12.10;;;;;;;3.73;67.63;98669.42;1715717;83;21197;-60
2021/03/05 01:50:22;;;;;;;24.27;11.15;;;;;;;3.73;67.69;98672.91;1707903;83;21154;-60
2021/03/05 01:52:58;;;;;;;21.65;11.18;;;;;;;3.71;67.83;98666.02;1722783;83;21577;-61
2021/03/05 01:55:25;;;;;;;23.57;11.40;;;;;;;3.71;67.98;98674.02;1710878;83;21207;-59
2021/03/05 01:57:54;;;;;;;26.65;12.07;;;;;;;3.74;67.99;98680.44;1708313;83;21363;-61
2021/03/05 02:00:33;;;;;;;26.60;11.75;;;;;;;3.75;67.98;98687.48;1697592;83;21198;-61
2021/03/05 02:03:02;;;;;;;21.25;10.75;;;;;;;3.76;68.03;98675.85;1713786;83;21256;-60
2021/03/05 02:05:30;;;;;;;21.42;11.38;;;;;;;3.78;68.11;98673.93;1684623;83;21181;-58
2021/03/05 02:07:58;;;;;;;20.20;10.58;;;;;;;3.82;68.10;98673.25;1682169;83;21189;-60
2021/03/05 02:10:26;;;;;;;25.62;11.83;;;;;;;3.82;68.13;98683.45;1724005;83;21158;-60
2021/03/05 02:12:54;;;;;;;21.82;10.95;;;;;;;3.81;68.15;98685.72;1686037;83;21146;-60
2021/03/05 02:15:22;;;;;;;25.12;11.88;;;;;;;3.82;68.21;98675.92;1690988;83;21158;-61
2021/03/05 02:18:16;;;;;;;24.02;12.03;;;;;;;3.82;68.26;98680.78;1693821;83;21585;-59
2021/03/05 02:21:08;;;;;;;27.40;12.33;;;;;;;3.78;68.32;98687.25;1708115;83;21308;-61
2021/03/05 02:24:04;;;;;;;23.47;11.70;;;;;;;3.72;68.53;98689.88;1710999;83;21200;-61
2021/03/05 02:26:55;;;;;;;24.87;12.82;;;;;;;3.73;68.75;98694.74;1724161;83;21178;-58
2021/03/05 02:30:02;;;;;;;25.27;11.70;;;;;;;3.79;68.80;98703.64;1722882;83;21170;-62
2021/03/05 02:33:06;;;;;;;26.87;12.07;;;;;;;3.81;68.79;98701.72;1712679;83;21692;-61
2021/03/05 02:35:34;;;;;;;23.05;11.63;;;;;;;3.81;68.87;98699.05;1711914;83;21193;-60
2021/03/05 02:38:03;;;;;;;24.45;12.13;;;;;;;3.87;69.00;98703.13;1705253;83;21200;-59
2021/03/05 02:40:34;;;;;;;26.68;12.53;;;;;;;3.85;68.86;98703.20;1711129;83;21691;-60
2021/03/05 02:43:05;;;;;;;27.40;12.75;;;;;;;3.84;68.97;98704.18;1719320;83;21166;-60
2021/03/05 02:45:36;;;;;;;23.40;12.23;;;;;;;3.83;69.04;98706.45;1703968;83;21561;-60
2021/03/05 02:48:11;;;;;;;25.72;13.10;;;;;;;3.80;69.17;98714.19;1711813;83;21181;-60
2021/03/05 02:50:44;;;;;;;23.55;12.28;;;;;;;3.78;69.30;98719.24;1708246;83;21563;-59
2021/03/05 02:53:14;;;;;;;26.42;12.55;;;;;;;3.77;69.48;98718.89;1709565;83;21139;-60
2021/03/05 02:55:41;;;;;;;28.38;13.43;;;;;;;3.73;69.59;98721.39;1682874;83;21439;-59
2021/03/05 02:58:09;;;;;;;27.52;13.78;;;;;;;3.68;69.92;98725.70;1712663;83;21188;-61
2021/03/05 03:00:38;;;;;;;28.77;14.25;;;;;;;3.64;70.18;98727.35;1721929;83;21161;-61
2021/03/05 03:03:07;;;;;;;31.25;15.20;;;;;;;3.57;70.54;98725.59;1712706;83;21404;-60
2021/03/05 03:05:35;;;;;;;28.62;14.98;;;;;;;3.57;70.74;98727.39;1683177;83;21572;-62
2021/03/05 03:08:05;;;;;;;32.85;16.42;;;;;;;3.55;71.03;98727.50;1682033;83;21225;-61
2021/03/05 03:10:33;;;;;;;32.50;14.50;;;;;;;3.52;71.30;98729.03;1684588;83;21161;-61
2021/03/05 03:13:01;;;;;;;28.85;14.25;;;;;;;3.54;71.53;98729.78;1726914;83;21341;-61
2021/03/05 03:15:32;;;;;;;30.25;15.55;;;;;;;3.50;71.71;98732.75;1705344;83;21219;-61
2021/03/05 03:18:02;;;;;;;34.13;16.48;;;;;;;3.48;72.04;98740.86;1724530;83;21190;-60
2021/03/05 03:20:30;;;;;;;33.95;15.80;;;;;;;3.50;72.25;98736.75;1716308;83;21176;-60
2021/03/05 03:22:58;;;;;;;32.63;15.68;;;;;;;3.52;72.42;98737.50;1722832;83;21170;-60
2021/03/05 03:25:26;;;;;;;35.23;16.12;;;;;;;3.48;72.55;98742.66;1726419;83;21180;-61
2021/03/05 03:27:54;;;;;;;38.70;16.62;;;;;;;3.48;72.74;98751.98;1714641;83;21152;-60
2021/03/05 03:30:22;;;;;;;35.85;17.67;;;;;;;3.46;72.94;98753.44;1729199;83;21177;-61
2021/03/05 03:32:50;;;;;;;33.15;16.77;;;;;;;3.44;73.13;98750.02;1716897;83;21343;-60
2021/03/05 03:35:18;;;;;;;38.17;17.42;;;;;;;3.40;73.38;98756.98;1667021;83;21206;-60
2021/03/05 03:37:47;;;;;;;33.85;16.52;;;;;;;3.37;73.71;98758.52;1713000;83;21136;-60
2021/03/05 03:40:20;;;;;;;36.90;16.25;;;;;;;3.37;73.89;98753.19;1702301;83;21189;-61
2021/03/05 03:42:49;;;;;;;32.40;16.20;;;;;;;3.37;74.06;98758.52;1708106;83;21142;-62
2021/03/05 03:45:20;;;;;;;39.40;18.27;;;;;;;3.34;74.27;98762.23;1720428;83;21602;-60
2021/03/05 03:47:49;;;;;;;38.48;17.17;;;;;;;3.35;74.53;98765.75;1710549;83;21319;-61
2021/03/05 03:50:37;;;;;;;35.63;16.82;;;;;;;3.36;74.70;98763.48;1717861;83;21371;-61
2021/03/05 03:53:25;;;;;;;37.50;17.05;;;;;;;3.32;75.01;98767.31;1684454;83;21212;-61
2021/03/05 03:55:53;;;;;;;37.55;16.50;;;;;;;3.26;75.49;98761.03;1720602;83;21114;-61
2021/03/05 03:58:23;;;;;;;39.33;17.70;;;;;;;3.23;75.90;98761.26;1710775;83;21197;-62
2021/03/05 04:00:55;;;;;;;39.08;16.70;;;;;;;3.21;76.18;98761.84;1705082;83;21182;-61
2021/03/05 04:03:25;;;;;;;40.28;18.67;;;;;;;3.21;76.44;98759.17;1704321;83;21625;-60
2021/03/05 04:05:53;;;;;;;38.33;17.87;;;;;;;3.18;76.64;98761.56;1725462;83;21505;-60
2021/03/05 04:08:23;;;;;;;37.28;16.93;;;;;;;3.23;76.82;98765.25;1702474;83;21140;-60
2021/03/05 04:10:52;;;;;;;37.67;18.12;;;;;;;3.25;76.81;98770.00;1712166;83;21561;-60
2021/03/05 04:13:19;;;;;;;40.35;18.75;;;;;;;3.30;76.90;98771.89;1716340;83;21333;-60
2021/03/05 04:15:49;;;;;;;39.20;17.73;;;;;;;3.33;76.87;98772.53;1716779;83;21174;-64
2021/03/05 04:18:18;;;;;;;37.42;16.70;;;;;;;3.36;76.85;98776.80;1690444;83;21310;-60
2021/03/05 04:20:46;;;;;;;34.20;16.20;;;;;;;3.36;76.80;98779.46;1711886;83;21183;-60
2021/03/05 04:23:13;;;;;;;36.23;17.90;;;;;;;3.33;76.77;98778.33;1703036;83;21158;-60
2021/03/05 04:25:41;;;;;;;34.70;17.40;;;;;;;3.27;76.90;98768.95;1720472;83;21163;-60
2021/03/05 04:28:09;;;;;;;33.35;17.60;;;;;;;3.27;76.97;98771.61;1711443;83;21150;-60
2021/03/05 04:30:40;;;;;;;36.60;17.65;;;;;;;3.29;77.07;98771.03;1718924;83;21248;-60
2021/03/05 04:33:08;;;;;;;35.83;17.92;;;;;;;3.31;77.07;98772.24;1703102;83;21134;-60
2021/03/05 04:35:35;;;;;;;42.25;18.32;;;;;;;3.27;77.10;98772.08;1684292;84;21184;-61
2021/03/05 04:38:06;;;;;;;39.40;19.20;;;;;;;3.25;77.31;98777.98;1655880;85;21629;-61
2021/03/05 04:40:33;;;;;;;37.08;18.57;;;;;;;3.24;77.38;98782.92;1700894;83;21253;-60
2021/03/05 04:43:02;;;;;;;37.53;17.30;;;;;;;3.26;77.53;98779.68;1712325;83;21436;-60
2021/03/05 04:45:30;;;;;;;37.05;17.92;;;;;;;3.28;77.58;98777.30;1713908;83;21668;-61
2021/03/05 04:47:58;;;;;;;37.73;18.00;;;;;;;3.29;77.62;98784.81;1711263;83;21617;-61
2021/03/05 04:50:26;;;;;;;33.90;16.57;;;;;;;3.33;77.68;98785.84;1670590;84;21177;-60
2021/03/05 04:52:54;;;;;;;40.08;17.12;;;;;;;3.39;77.73;98787.23;1690740;84;21181;-61
2021/03/05 04:55:22;;;;;;;34.23;16.20;;;;;;;3.40;77.68;98781.83;1679128;84;21192;-60
2021/03/05 04:57:53;;;;;;;40.03;17.90;;;;;;;3.40;77.58;98787.63;1688669;84;21294;-61
2021/03/05 05:00:32;;;;;;;37.53;16.55;;;;;;;3.42;77.66;98791.03;1804115;78;23144;-62
2021/03/05 05:03:01;;;;;;;39.65;18.40;;;;;;;3.33;77.76;98796.49;1774904;80;21137;-61
2021/03/05 05:05:29;;;;;;;34.98;16.60;;;;;;;3.32;77.78;98789.95;1777778;80;21156;-61
2021/03/05 05:07:58;;;;;;;38.45;17.27;;;;;;;3.28;77.86;98795.08;1773353;80;21146;-60
2021/03/05 05:10:26;;;;;;;30.25;15.75;;;;;;;3.29;77.91;98802.13;1766744;80;21194;-61
2021/03/05 05:12:55;;;;;;;39.75;16.15;;;;;;;3.31;77.75;98801.54;1717721;81;21212;-63
2021/03/05 05:15:23;;;;;;;37.55;18.02;;;;;;;3.30;77.68;98801.19;1723770;81;21194;-62
2021/03/05 05:17:53;;;;;;;37.85;17.20;;;;;;;3.30;77.66;98811.33;1738812;81;21183;-60
2021/03/05 05:20:22;;;;;;;32.50;16.30;;;;;;;3.33;77.57;98809.81;1700576;83;21183;-61
2021/03/05 05:22:49;;;;;;;35.55;16.97;;;;;;;3.37;77.49;98805.13;1738231;81;21189;-61
2021/03/05 05:25:18;;;;;;;39.00;16.85;;;;;;;3.39;77.24;98810.73;1712878;83;21281;-61
2021/03/05 05:27:46;;;;;;;35.33;16.67;;;;;;;3.39;77.11;98812.53;1713249;83;21677;-61
2021/03/05 05:30:16;;;;;;;36.95;16.25;;;;;;;3.36;76.95;98808.29;1712286;81;21321;-61
2021/03/05 05:32:44;;;;;;;27.77;13.65;;;;;;;3.29;77.00;98819.44;1725299;82;21174;-62
2021/03/05 05:35:12;;;;;;;36.65;14.60;;;;;;;3.25;77.23;98816.60;1713191;82;21222;-61
2021/03/05 05:37:40;;;;;;;34.88;15.60;;;;;;;3.21;77.38;98813.27;1725165;82;21185;-61
2021/03/05 05:40:09;;;;;;;32.65;15.35;;;;;;;3.20;77.50;98818.70;1716030;82;21190;-61
2021/03/05 05:42:37;;;;;;;30.68;14.25;;;;;;;3.19;77.63;98823.16;1714096;82;21278;-61
2021/03/05 05:45:06;;;;;;;32.20;14.53;;;;;;;3.21;77.73;98821.75;1725462;82;21186;-60
2021/03/05 05:47:37;;;;;;;33.65;16.05;;;;;;;3.23;77.87;98825.17;1713522;82;21192;-60
2021/03/05 05:50:07;;;;;;;38.60;17.10;;;;;;;3.20;77.96;98822.70;1718407;82;21205;-62
2021/03/05 05:52:36;;;;;;;39.58;15.98;;;;;;;3.20;78.21;98828.88;1718036;82;22233;-62
2021/03/05 05:55:05;;;;;;;31.73;15.48;;;;;;;3.21;78.35;98828.41;1714746;82;21783;-60
2021/03/05 05:57:36;;;;;;;32.85;15.05;;;;;;;3.19;78.44;98834.31;1726020;82;21170;-60
2021/03/05 06:00:09;;;;;;;32.53;15.35;;;;;;;3.17;78.62;98833.56;1713943;82;21158;-61
2021/03/05 06:02:37;;;;;;;30.25;15.43;;;;;;;3.15;78.58;98840.30;1714411;83;21132;-62
2021/03/05 06:05:07;;;;;;;30.12;14.55;;;;;;;3.17;78.61;98840.22;1692089;83;21143;-62
2021/03/05 06:07:34;;;;;;;30.80;14.87;;;;;;;3.16;78.45;98838.50;1720137;82;21281;-61
2021/03/05 06:10:06;;;;;;;30.40;15.05;;;;;;;3.14;78.45;98849.26;1758353;80;21123;-61
2021/03/05 06:12:34;;;;;;;32.50;14.47;;;;;;;3.12;78.53;98844.98;1766683;80;21748;-60
2021/03/05 06:15:04;;;;;;;30.20;14.85;;;;;;;3.12;78.64;98844.98;1766757;80;21306;-61
2021/03/05 06:17:46;;;;;;;29.48;13.80;;;;;;;3.11;78.64;98848.58;1693173;83;21136;-60
2021/03/05 06:20:16;;;;;;;28.40;13.38;;;;;;;3.13;78.74;98851.53;1728671;81;21135;-60
2021/03/05 06:22:46;;;;;;;30.35;14.78;;;;;;;3.17;78.64;98854.37;1692233;83;21229;-60
2021/03/05 06:25:18;;;;;;;29.75;14.05;;;;;;;3.22;78.53;98852.73;1752111;81;21241;-61
2021/03/05 06:27:46;;;;;;;31.95;14.93;;;;;;;3.27;78.30;98855.97;1727441;81;21166;-60
2021/03/05 06:30:17;;;;;;;30.20;14.23;;;;;;;3.30;78.12;98865.10;1711851;83;21135;-62
2021/03/05 06:32:45;;;;;;;29.65;15.05;;;;;;;3.34;77.89;98861.28;1739195;81;21160;-61
2021/03/05 06:35:13;;;;;;;29.80;14.50;;;;;;;3.37;77.65;98863.72;1759295;80;21530;-61
2021/03/05 06:37:45;;;;;;;29.27;14.03;;;;;;;3.41;77.59;98866.56;1710947;81;21170;-63
2021/03/05 06:40:16;;;;;;;30.43;14.68;;;;;;;3.42;77.41;98870.48;1749128;81;21123;-63
2021/03/05 06:42:53;;;;;;;29.45;13.80;;;;;;;3.46;77.22;98874.64;1733740;81;21159;-63
2021/03/05 06:45:35;;;;;;;36.55;15.08;;;;;;;3.50;76.95;98871.29;1760626;81;21143;-62
2021/03/05 06:48:06;;;;;;;31.07;13.95;;;;;;;3.52;76.76;98872.04;1735607;82;21617;-66
2021/03/05 06:50:38;;;;;;;26.42;13.35;;;;;;;3.50;76.71;98868.62;1758717;80;21633;-64
2021/03/05 06:53:23;;;;;;;24.90;12.50;;;;;;;3.49;76.53;98868.27;1754426;80;21183;-63
2021/03/05 06:56:03;;;;;;;25.05;13.00;;;;;;;3.53;75.93;98862.64;1811104;78;23420;-64
2021/03/05 06:58:31;;;;;;;26.02;12.43;;;;;;;3.49;75.76;98865.60;1762640;80;21150;-61
2021/03/05 07:01:04;;;;;;;29.98;13.62;;;;;;;3.54;75.60;98869.66;1788382;80;21685;-62
2021/03/05 07:03:34;;;;;;;24.30;11.93;;;;;;;3.59;75.28;98874.22;1727734;83;21189;-62
2021/03/05 07:06:02;;;;;;;23.57;11.97;;;;;;;3.66;75.09;98881.33;1693365;81;21155;-61
2021/03/05 07:08:41;;;;;;;26.73;12.30;;;;;;;3.72;75.03;98874.25;1669422;83;21187;-61
2021/03/05 07:11:36;;;;;;;25.20;12.75;;;;;;;3.78;74.79;98875.17;1725775;82;21172;-61
2021/03/05 07:14:04;;;;;;;25.15;11.88;;;;;;;3.82;74.67;98878.03;1722723;81;21472;-61
2021/03/05 07:16:45;;;;;;;22.55;11.35;;;;;;;3.85;73.95;98880.47;1727260;82;21185;-63
2021/03/05 07:19:18;;;;;;;25.08;11.90;;;;;;;3.81;73.58;98872.31;1724833;82;21623;-64
2021/03/05 07:21:47;;;;;;;25.27;12.37;;;;;;;3.79;73.43;98867.09;1729712;81;21204;-64
2021/03/05 07:24:17;;;;;;;25.97;13.35;;;;;;;3.84;73.56;98873.45;1717353;82;21147;-61
2021/03/05 07:27:01;;;;;;;30.37;13.05;;;;;;;3.82;73.65;98880.70;1707268;81;21135;-62
2021/03/05 07:29:44;;;;;;;24.43;11.70;;;;;;;3.82;73.71;98881.17;1718538;83;21174;-62
2021/03/05 07:32:20;;;;;;;22.95;11.10;;;;;;;3.83;73.46;98886.39;1728286;81;21162;-61
2021/03/05 07:34:59;;;;;;;21.68;10.85;;;;;;;3.83;73.10;98887.72;1720442;82;21292;-62
2021/03/05 07:37:46;;;;;;;23.70;11.28;;;;;;;3.79;72.75;98882.22;1724529;82;21221;-70
2021/03/05 07:40:15;;;;;;;21.68;12.63;;;;;;;3.81;72.88;98876.31;1721955;82;21656;-68
2021/03/05 07:42:43;;;;;;;25.90;12.47;;;;;;;3.91;72.96;98878.72;1723398;82;21199;-72
2021/03/05 07:45:13;;;;;;;26.07;10.60;;;;;;;4.06;72.64;98884.85;1723068;83;21106;-74
2021/03/05 07:47:48;;;;;;;22.80;11.80;;;;;;;4.10;72.12;98889.88;1740871;81;21136;-73
2021/03/05 07:50:25;;;;;;;27.82;12.73;;;;;;;4.12;71.87;98889.30;1701628;83;21303;-67
2021/03/05 07:52:58;;;;;;;19.23;9.98;;;;;;;4.15;71.78;98886.39;1732259;82;21180;-69
2021/03/05 07:55:40;;;;;;;20.10;10.88;;;;;;;4.22;71.43;98886.83;1712202;82;21143;-70
2021/03/05 07:58:08;;;;;;;23.75;11.25;;;;;;;4.24;70.74;98889.77;1704123;82;21147;-63
2021/03/05 08:00:50;;;;;;;22.22;10.98;;;;;;;4.15;70.12;98893.06;1765371;80;21154;-65
2021/03/05 08:03:25;;;;;;;19.95;9.68;;;;;;;4.08;70.17;98888.27;1756569;80;21701;-67
2021/03/05 08:05:54;;;;;;;22.65;10.63;;;;;;;4.05;70.36;98892.47;1755045;80;21185;-66
2021/03/05 08:08:26;;;;;;;22.65;11.00;;;;;;;4.07;70.43;98891.88;1764560;80;21281;-65
2021/03/05 08:11:05;;;;;;;19.98;10.00;;;;;;;4.14;70.30;98886.04;1761442;80;21143;-66
2021/03/05 08:13:46;;;;;;;20.70;10.63;;;;;;;4.20;69.82;98886.09;1761703;80;21663;-66
2021/03/05 08:16:33;;;;;;;15.75;8.88;;;;;;;4.26;69.33;98889.70;1766800;81;21357;-64
2021/03/05 08:19:09;;;;;;;17.70;9.15;;;;;;;4.29;68.47;98891.66;1711234;83;21179;-66
2021/03/05 08:22:00;;;;;;;18.02;9.23;;;;;;;4.25;68.30;98891.97;1715574;82;21159;-66
2021/03/05 08:24:39;;;;;;;23.10;10.93;;;;;;;4.28;68.12;98895.27;1706957;82;21100;-67
2021/03/05 08:27:33;;;;;;;17.32;9.38;;;;;;;4.26;68.03;98891.86;1715283;83;21224;-65
2021/03/05 08:30:13;;;;;;;19.82;9.63;;;;;;;4.28;68.27;98896.60;1743255;80;21336;-64
2021/03/05 08:32:51;;;;;;;20.68;9.83;;;;;;;4.40;68.15;98897.12;1764817;81;21191;-64
2021/03/05 08:35:37;;;;;;;15.75;7.75;;;;;;;4.52;67.99;98898.09;1753553;81;21159;-65
2021/03/05 08:38:12;;;;;;;14.07;7.03;;;;;;;4.66;66.62;98899.30;1761128;80;21187;-65
2021/03/05 08:40:49;;;;;;;13.43;7.42;;;;;;;4.67;65.92;98894.83;1767339;80;21152;-68
2021/03/05 08:43:24;;;;;;;16.23;8.70;;;;;;;4.68;65.80;98889.84;1745871;81;21436;-67
2021/03/05 08:46:04;;;;;;;16.57;8.60;;;;;;;4.69;66.04;98886.23;1711380;82;21165;-66
2021/03/05 08:48:44;;;;;;;19.40;8.30;;;;;;;4.81;65.87;98885.34;1764819;81;21165;-65
2021/03/05 08:51:20;;;;;;;15.68;8.50;;;;;;;4.90;65.38;98884.70;1709766;83;21792;-65
2021/03/05 08:53:56;;;;;;;17.75;8.93;;;;;;;4.97;64.92;98889.98;1764790;80;21155;-65
2021/03/05 08:56:27;;;;;;;20.88;9.25;;;;;;;5.07;64.91;98893.69;1757498;80;21187;-66
2021/03/05 08:59:04;;;;;;;18.57;9.38;;;;;;;5.16;64.50;98897.05;1716246;82;21139;-63
2021/03/05 09:01:38;;;;;;;22.60;10.15;;;;;;;5.24;64.41;98902.20;1761539;81;21578;-64
2021/03/05 09:04:18;;;;;;;22.60;10.82;;;;;;;5.30;64.01;98906.27;1692583;83;21143;-62
2021/03/05 09:06:55;;;;;;;21.65;10.95;;;;;;;5.33;64.06;98904.70;1750365;80;21316;-64
2021/03/05 09:09:28;;;;;;;22.15;10.72;;;;;;;5.39;64.24;98900.27;1766843;80;21206;-64
2021/03/05 09:12:13;;;;;;;23.80;11.25;;;;;;;5.45;63.59;98897.14;1748585;80;21167;-62
2021/03/05 09:14:45;;;;;;;21.40;10.90;;;;;;;5.45;63.56;98891.79;1757197;81;21305;-65
2021/03/05 09:17:14;;;;;;;21.00;9.80;;;;;;;5.46;63.33;98900.16;1694100;83;21175;-65
2021/03/05 09:19:44;;;;;;;22.80;10.82;;;;;;;5.45;63.28;98901.63;1757985;81;21274;-68
2021/03/05 09:22:23;;;;;;;23.85;10.78;;;;;;;5.48;63.12;98908.95;1758730;80;21310;-66
2021/03/05 09:25:00;;;;;;;16.73;8.50;;;;;;;5.50;62.58;98909.70;1761805;81;21332;-64
2021/03/05 09:27:41;;;;;;;18.52;10.08;;;;;;;5.51;62.42;98910.52;1737703;81;21777;-67
2021/03/05 09:30:20;;;;;;;19.15;10.82;;;;;;;5.58;62.57;98908.64;1752494;81;21153;-66
2021/03/05 09:32:53;;;;;;;21.30;10.78;;;;;;;5.68;62.10;98913.66;1752562;81;21321;-65
2021/03/05 09:35:25;;;;;;;19.42;9.68;;;;;;;5.76;62.21;98909.97;1761717;81;21209;-66
2021/03/05 09:37:54;;;;;;;20.88;10.08;;;;;;;5.88;62.11;98917.09;1757117;81;21688;-66
2021/03/05 09:40:22;;;;;;;20.02;9.50;;;;;;;5.99;61.62;98911.80;1718856;83;21325;-67
2021/03/05 09:43:01;;;;;;;18.17;10.35;;;;;;;6.08;60.96;98920.09;1755289;80;21147;-69
2021/03/05 09:45:47;;;;;;;20.45;10.75;;;;;;;6.11;60.15;98922.08;1748169;80;21171;-66
2021/03/05 09:48:35;;;;;;;18.00;8.60;;;;;;;6.11;59.84;98932.78;1747659;80;21169;-64
2021/03/05 09:51:07;;;;;;;14.07;8.08;;;;;;;6.12;59.25;98930.45;1694213;83;21187;-67
2021/03/05 09:53:36;;;;;;;16.05;9.28;;;;;;;6.03;59.06;98934.67;1753497;80;21163;-67
2021/03/05 09:56:07;;;;;;;17.10;9.03;;;;;;;6.00;59.25;98936.27;1718233;82;21199;-62
2021/03/05 09:58:36;;;;;;;14.35;8.13;;;;;;;6.03;59.02;98936.48;1769589;80;21285;-66
2021/03/05 10:01:05;;;;;;;18.37;9.03;;;;;;;5.97;58.09;98943.64;1773273;80;21171;-66
2021/03/05 10:03:35;;;;;;;16.07;8.03;;;;;;;5.97;58.09;98943.64;1688898;82;21723;-66
2021/03/05 10:06:03;;;;;;;19.10;8.83;;;;;;;6.02;57.70;98948.17;1757088;80;21299;-66
2021/03/05 10:08:31;;;;;;;13.95;7.12;;;;;;;6.01;57.50;98944.64;1744724;82;21546;-65
2021/03/05 10:11:08;;;;;;;11.93;6.00;;;;;;;6.04;56.76;98946.23;1715419;83;21167;-65
2021/03/05 10:13:54;;;;;;;10.93;5.62;;;;;;;6.04;56.47;98944.42;1700710;83;21577;-65
2021/03/05 10:16:32;;;;;;;12.30;6.22;;;;;;;6.03;56.22;98945.38;1761748;80;21139;-65
2021/03/05 10:19:14;;;;;;;14.45;6.53;;;;;;;6.08;56.12;98943.70;1711825;82;21626;-66
2021/03/05 10:21:49;;;;;;;14.50;7.35;;;;;;;6.08;56.12;98943.70;1714963;82;21579;-65
2021/03/05 10:24:21;;;;;;;;;;;;;;;6.01;56.37;98946.45;1731486;81;21340;-69
2021/03/05 10:27:19;;;;;;;19.70;8.35;;;;;;;5.90;57.32;98950.41;1706761;82;20493;-66
2021/03/05 10:29:56;;;;;;;18.55;8.60;;;;;;;5.83;57.96;98955.32;1772181;80;21142;-66
2021/03/05 10:32:32;;;;;;;13.65;7.10;;;;;;;5.82;58.01;98953.62;1731871;82;21240;-63
2021/03/05 10:35:11;;;;;;;15.45;7.80;;;;;;;5.82;57.51;98952.30;1689948;83;22268;-66
2021/03/05 10:37:39;;;;;;;15.03;9.18;;;;;;;5.85;57.85;98953.42;1707842;83;21177;-67
2021/03/05 10:40:16;;;;;;;15.83;8.80;;;;;;;5.94;58.61;98958.60;1765600;80;21625;-67
2021/03/05 10:42:44;;;;;;;18.30;9.43;;;;;;;5.92;58.85;98959.17;1767574;80;21166;-67
2021/03/05 10:45:14;;;;;;;16.52;9.70;;;;;;;5.94;59.13;98955.92;1770938;80;21197;-64
2021/03/05 10:47:42;;;;;;;24.45;10.50;;;;;;;5.96;59.24;98957.49;1709681;82;21183;-65
2021/03/05 10:50:10;;;;;;;20.23;9.43;;;;;;;6.11;59.15;98960.02;1756264;80;21166;-62
2021/03/05 10:52:38;;;;;;;14.63;7.53;;;;;;;6.11;59.15;98960.02;1765612;80;21647;-63
2021/03/05 10:55:08;;;;;;;18.07;8.40;;;;;;;6.17;58.67;98960.88;1753093;80;21196;-61
2021/03/05 10:57:36;;;;;;;15.00;8.45;;;;;;;6.16;58.34;98960.53;1727173;82;21147;-73
2021/03/05 11:00:06;;;;;;;16.40;8.48;;;;;;;6.03;58.62;98957.41;1749058;81;21172;-68
2021/03/05 11:02:36;;;;;;;15.25;7.65;;;;;;;6.03;58.62;98957.41;1768993;80;21175;-60
2021/03/05 11:05:05;;;;;;;14.78;8.38;;;;;;;5.98;58.66;98960.91;1755508;80;21586;-68
2021/03/05 11:07:33;;;;;;;16.32;8.83;;;;;;;5.93;58.61;98961.75;1759133;80;21305;-71
2021/03/05 11:10:03;;;;;;;14.35;8.10;;;;;;;5.89;59.02;98962.95;1761695;80;21306;-72
2021/03/05 11:12:34;;;;;;;15.58;8.80;;;;;;;5.91;58.97;98963.69;1754317;80;21167;-73
2021/03/05 11:15:07;;;;;;;16.23;8.20;;;;;;;5.90;58.60;98959.77;1770630;80;21338;-73
2021/03/05 11:17:35;;;;;;;14.98;7.53;;;;;;;5.77;58.59;98966.48;1718141;80;21155;-73
2021/03/05 11:20:05;;;;;;;17.32;8.10;;;;;;;5.63;58.90;98959.96;1764750;81;21269;-70
2021/03/05 11:22:35;;;;;;;16.90;8.23;;;;;;;5.59;59.36;98966.47;1707943;82;21638;-73
2021/03/05 11:25:05;;;;;;;18.73;8.25;;;;;;;5.59;59.36;98966.47;1758725;80;21626;-72
2021/03/05 11:27:35;;;;;;;14.87;7.75;;;;;;;5.63;59.25;98965.78;1771098;81;21163;-72
2021/03/05 11:30:04;;;;;;;13.38;7.53;;;;;;;5.64;59.16;98970.15;1754086;80;21629;-66
2021/03/05 11:32:33;;;;;;;14.55;7.83;;;;;;;5.64;59.16;98970.15;1765191;81;21403;-72
2021/03/05 11:35:03;;;;;;;12.18;6.72;;;;;;;5.68;59.20;98959.13;1765875;80;21199;-60
